Terminal Aerodrome Forecast
Issued by NWS

Home | Current Version | Previous Version | Graphics & Text | Print | Product List | Glossary On
Versions: 1 2 3 4 5 6 7 8 9 10 11 12 13 14 15 16 17 18 19 20 21 22 23 24 25
683
FTUS43 KLOT 120300 AAA
TAFDPA
TAF AMD
KDPA 120300Z 1203/1224 VRB03KT P6SM FEW120 SCT250
     FM121100 27013KT P6SM -SN BKN030
     FM121600 30014G20KT P6SM SCT030 BKN040
     FM121900 31020G29KT P6SM SCT050=

USA.gov is the U.S. government's official web portal to all federal, state and local government web resources and services.